Orlando, Florida
Traffic Map
Current Weather Conditions
Orlando, Florida
Scattered Clouds
Scattered Clouds
79°
Feels Like: 79°
Wind Chill: 79° Ceiling: Unl
Heat Index: 79° Visibility: 10mi
Dew Point: 53° Wind: 6mph
Humidity: 40% Direction: 290° (WNW)
Pressure: 30.18in Gusts: 0mph
Raw Report DataKORL 172353Z 29005KT 10SM SCT060 26/12 A3018 RMK AO2 SLP224 T02610117 10289 20256 51014
Traffic Incident Summary
Active as of:
Severity:
Category:
InformationThere was an issue retrieving the traffic information for this location. Please try a different location or try again shortly.
Advertisements